sensor_id;sensor_type;location;lat;lon;timestamp;P1;durP1;ratioP1;P2;durP2;ratioP2
33794;SDS011;51430;52.242;21.118;2022-08-19T00:00:08;13.90;;;11.20;;
33794;SDS011;51430;52.242;21.118;2022-08-19T00:03:01;15.60;;;11.70;;
33794;SDS011;51430;52.242;21.118;2022-08-19T00:05:30;12.70;;;10.90;;
33794;SDS011;51430;52.242;21.118;2022-08-19T00:07:59;14.40;;;11.70;;
33794;SDS011;51430;52.242;21.118;2022-08-19T00:10:27;12.20;;;11.00;;
33794;SDS011;51430;52.242;21.118;2022-08-19T00:12:55;15.10;;;10.70;;
33794;SDS011;51430;52.242;21.118;2022-08-19T00:15:24;16.00;;;11.90;;
33794;SDS011;51430;52.242;21.118;2022-08-19T00:17:52;13.30;;;11.60;;
33794;SDS011;51430;52.242;21.118;2022-08-19T00:20:21;13.10;;;11.70;;
33794;SDS011;51430;52.242;21.118;2022-08-19T00:22:50;12.40;;;11.30;;
33794;SDS011;51430;52.242;21.118;2022-08-19T00:25:19;16.20;;;11.50;;
33794;SDS011;51430;52.242;21.118;2022-08-19T00:27:57;20.70;;;11.80;;
33794;SDS011;51430;52.242;21.118;2022-08-19T00:30:27;13.20;;;11.50;;
33794;SDS011;51430;52.242;21.118;2022-08-19T00:32:56;14.70;;;12.20;;
33794;SDS011;51430;52.242;21.118;2022-08-19T00:35:25;16.00;;;11.50;;
33794;SDS011;51430;52.242;21.118;2022-08-19T00:37:55;14.20;;;12.30;;
33794;SDS011;51430;52.242;21.118;2022-08-19T00:40:23;17.40;;;12.20;;
33794;SDS011;51430;52.242;21.118;2022-08-19T00:42:52;15.20;;;12.50;;
33794;SDS011;51430;52.242;21.118;2022-08-19T00:45:22;14.40;;;12.70;;
33794;SDS011;51430;52.242;21.118;2022-08-19T00:47:55;14.10;;;12.30;;
33794;SDS011;51430;52.242;21.118;2022-08-19T00:50:23;16.60;;;11.50;;
33794;SDS011;51430;52.242;21.118;2022-08-19T00:52:52;14.00;;;11.90;;
33794;SDS011;51430;52.242;21.118;2022-08-19T00:55:22;15.70;;;11.70;;
33794;SDS011;51430;52.242;21.118;2022-08-19T00:57:54;13.90;;;11.80;;
33794;SDS011;51430;52.242;21.118;2022-08-19T01:00:28;16.60;;;12.00;;
33794;SDS011;51430;52.242;21.118;2022-08-19T01:02:58;14.50;;;12.40;;
33794;SDS011;51430;52.242;21.118;2022-08-19T01:05:27;14.00;;;11.70;;
33794;SDS011;51430;52.242;21.118;2022-08-19T01:07:58;16.80;;;12.10;;
33794;SDS011;51430;52.242;21.118;2022-08-19T01:10:29;15.00;;;12.40;;
33794;SDS011;51430;52.242;21.118;2022-08-19T01:13:05;15.70;;;12.00;;
33794;SDS011;51430;52.242;21.118;2022-08-19T01:15:34;14.10;;;12.40;;
33794;SDS011;51430;52.242;21.118;2022-08-19T01:18:09;14.00;;;12.20;;
33794;SDS011;51430;52.242;21.118;2022-08-19T01:20:40;15.90;;;12.40;;
33794;SDS011;51430;52.242;21.118;2022-08-19T01:23:10;15.60;;;12.50;;
33794;SDS011;51430;52.242;21.118;2022-08-19T01:25:50;14.30;;;12.60;;
33794;SDS011;51430;52.242;21.118;2022-08-19T01:28:24;13.80;;;12.50;;
33794;SDS011;51430;52.242;21.118;2022-08-19T01:31:01;15.80;;;12.90;;
33794;SDS011;51430;52.242;21.118;2022-08-19T01:33:34;17.40;;;12.60;;
33794;SDS011;51430;52.242;21.118;2022-08-19T01:36:03;14.20;;;12.30;;
33794;SDS011;51430;52.242;21.118;2022-08-19T01:38:37;14.00;;;12.30;;
33794;SDS011;51430;52.242;21.118;2022-08-19T01:41:11;14.00;;;12.50;;
33794;SDS011;51430;52.242;21.118;2022-08-19T01:43:40;14.90;;;12.50;;
33794;SDS011;51430;52.242;21.118;2022-08-19T01:46:28;15.70;;;13.50;;
33794;SDS011;51430;52.242;21.118;2022-08-19T01:48:58;13.40;;;12.00;;
33794;SDS011;51430;52.242;21.118;2022-08-19T01:51:27;15.00;;;12.20;;
33794;SDS011;51430;52.242;21.118;2022-08-19T01:54:06;18.80;;;13.00;;
33794;SDS011;51430;52.242;21.118;2022-08-19T01:56:36;16.50;;;12.40;;
33794;SDS011;51430;52.242;21.118;2022-08-19T01:59:13;14.90;;;12.00;;
33794;SDS011;51430;52.242;21.118;2022-08-19T02:01:44;17.10;;;12.20;;
33794;SDS011;51430;52.242;21.118;2022-08-19T02:04:13;14.40;;;12.70;;
33794;SDS011;51430;52.242;21.118;2022-08-19T02:06:42;15.70;;;13.20;;
33794;SDS011;51430;52.242;21.118;2022-08-19T02:09:10;14.20;;;12.60;;
33794;SDS011;51430;52.242;21.118;2022-08-19T02:11:38;14.80;;;13.30;;
33794;SDS011;51430;52.242;21.118;2022-08-19T02:14:07;15.30;;;12.90;;
33794;SDS011;51430;52.242;21.118;2022-08-19T02:16:36;13.60;;;12.30;;
33794;SDS011;51430;52.242;21.118;2022-08-19T02:19:06;13.80;;;12.30;;
33794;SDS011;51430;52.242;21.118;2022-08-19T02:21:34;14.20;;;12.80;;
33794;SDS011;51430;52.242;21.118;2022-08-19T02:24:02;14.20;;;12.70;;
33794;SDS011;51430;52.242;21.118;2022-08-19T02:26:31;14.70;;;12.50;;
33794;SDS011;51430;52.242;21.118;2022-08-19T02:29:00;14.30;;;12.80;;
33794;SDS011;51430;52.242;21.118;2022-08-19T02:31:28;13.70;;;12.30;;
33794;SDS011;51430;52.242;21.118;2022-08-19T02:33:56;15.10;;;12.80;;
33794;SDS011;51430;52.242;21.118;2022-08-19T02:36:24;14.70;;;12.70;;
33794;SDS011;51430;52.242;21.118;2022-08-19T02:38:53;16.60;;;12.60;;
33794;SDS011;51430;52.242;21.118;2022-08-19T02:41:28;14.30;;;12.80;;
33794;SDS011;51430;52.242;21.118;2022-08-19T02:43:59;19.30;;;12.60;;
33794;SDS011;51430;52.242;21.118;2022-08-19T02:46:48;13.30;;;11.90;;
33794;SDS011;51430;52.242;21.118;2022-08-19T02:49:19;13.40;;;12.00;;
33794;SDS011;51430;52.242;21.118;2022-08-19T02:51:47;17.60;;;13.50;;
33794;SDS011;51430;52.242;21.118;2022-08-19T02:54:16;15.00;;;13.50;;
33794;SDS011;51430;52.242;21.118;2022-08-19T02:56:45;14.40;;;12.70;;
33794;SDS011;51430;52.242;21.118;2022-08-19T02:59:14;17.20;;;12.90;;
33794;SDS011;51430;52.242;21.118;2022-08-19T03:01:42;14.30;;;12.60;;
33794;SDS011;51430;52.242;21.118;2022-08-19T03:04:12;16.70;;;13.00;;
33794;SDS011;51430;52.242;21.118;2022-08-19T03:06:42;15.40;;;12.10;;
33794;SDS011;51430;52.242;21.118;2022-08-19T03:09:13;15.60;;;13.20;;
33794;SDS011;51430;52.242;21.118;2022-08-19T03:11:43;14.00;;;12.80;;
33794;SDS011;51430;52.242;21.118;2022-08-19T03:14:11;16.20;;;12.80;;
33794;SDS011;51430;52.242;21.118;2022-08-19T03:16:42;15.60;;;13.20;;
33794;SDS011;51430;52.242;21.118;2022-08-19T03:19:12;14.00;;;12.70;;
33794;SDS011;51430;52.242;21.118;2022-08-19T03:21:42;14.90;;;13.40;;
33794;SDS011;51430;52.242;21.118;2022-08-19T03:24:13;15.80;;;12.60;;
33794;SDS011;51430;52.242;21.118;2022-08-19T03:26:42;16.90;;;12.70;;
33794;SDS011;51430;52.242;21.118;2022-08-19T03:29:13;14.30;;;12.40;;
33794;SDS011;51430;52.242;21.118;2022-08-19T03:31:59;18.00;;;12.70;;
33794;SDS011;51430;52.242;21.118;2022-08-19T03:34:33;15.40;;;12.70;;
33794;SDS011;51430;52.242;21.118;2022-08-19T03:37:03;15.20;;;13.30;;
33794;SDS011;51430;52.242;21.118;2022-08-19T03:39:37;15.50;;;12.70;;
33794;SDS011;51430;52.242;21.118;2022-08-19T03:42:08;14.90;;;13.00;;
33794;SDS011;51430;52.242;21.118;2022-08-19T03:44:57;15.50;;;12.90;;
33794;SDS011;51430;52.242;21.118;2022-08-19T03:47:25;14.50;;;13.20;;
33794;SDS011;51430;52.242;21.118;2022-08-19T03:49:53;14.40;;;12.80;;
33794;SDS011;51430;52.242;21.118;2022-08-19T03:52:22;16.10;;;12.90;;
33794;SDS011;51430;52.242;21.118;2022-08-19T03:54:50;17.30;;;12.90;;
33794;SDS011;51430;52.242;21.118;2022-08-19T03:57:17;14.00;;;12.50;;
33794;SDS011;51430;52.242;21.118;2022-08-19T03:59:46;15.00;;;13.40;;
33794;SDS011;51430;52.242;21.118;2022-08-19T04:02:14;14.50;;;13.10;;
33794;SDS011;51430;52.242;21.118;2022-08-19T04:04:42;14.20;;;12.80;;
33794;SDS011;51430;52.242;21.118;2022-08-19T04:07:12;15.60;;;13.50;;
33794;SDS011;51430;52.242;21.118;2022-08-19T04:09:43;18.20;;;12.40;;
33794;SDS011;51430;52.242;21.118;2022-08-19T04:12:11;16.40;;;12.70;;
33794;SDS011;51430;52.242;21.118;2022-08-19T04:14:40;15.70;;;13.50;;
33794;SDS011;51430;52.242;21.118;2022-08-19T04:17:08;17.70;;;13.20;;
33794;SDS011;51430;52.242;21.118;2022-08-19T04:22:29;15.00;;;12.50;;
33794;SDS011;51430;52.242;21.118;2022-08-19T04:24:57;14.40;;;12.40;;
33794;SDS011;51430;52.242;21.118;2022-08-19T04:27:25;13.80;;;12.10;;
33794;SDS011;51430;52.242;21.118;2022-08-19T04:29:54;13.50;;;12.10;;
33794;SDS011;51430;52.242;21.118;2022-08-19T04:32:22;13.70;;;12.40;;
33794;SDS011;51430;52.242;21.118;2022-08-19T04:34:50;15.10;;;12.40;;
33794;SDS011;51430;52.242;21.118;2022-08-19T04:37:38;16.90;;;12.50;;
33794;SDS011;51430;52.242;21.118;2022-08-19T04:40:07;14.40;;;12.00;;
33794;SDS011;51430;52.242;21.118;2022-08-19T04:42:54;15.20;;;11.40;;
33794;SDS011;51430;52.242;21.118;2022-08-19T04:45:24;13.50;;;12.10;;
33794;SDS011;51430;52.242;21.118;2022-08-19T04:47:54;14.00;;;11.50;;
33794;SDS011;51430;52.242;21.118;2022-08-19T04:50:45;15.90;;;11.40;;
33794;SDS011;51430;52.242;21.118;2022-08-19T04:53:13;21.40;;;11.70;;
33794;SDS011;51430;52.242;21.118;2022-08-19T04:55:41;12.20;;;10.70;;
33794;SDS011;51430;52.242;21.118;2022-08-19T04:58:10;14.60;;;10.80;;
33794;SDS011;51430;52.242;21.118;2022-08-19T05:00:39;15.40;;;10.70;;
33794;SDS011;51430;52.242;21.118;2022-08-19T05:03:08;12.30;;;11.00;;
33794;SDS011;51430;52.242;21.118;2022-08-19T05:05:40;17.40;;;10.10;;
33794;SDS011;51430;52.242;21.118;2022-08-19T05:08:12;11.30;;;10.10;;
33794;SDS011;51430;52.242;21.118;2022-08-19T05:10:58;14.60;;;9.80;;
33794;SDS011;51430;52.242;21.118;2022-08-19T05:13:26;10.70;;;9.20;;
33794;SDS011;51430;52.242;21.118;2022-08-19T05:15:56;13.60;;;9.50;;
33794;SDS011;51430;52.242;21.118;2022-08-19T05:18:26;10.30;;;9.30;;
33794;SDS011;51430;52.242;21.118;2022-08-19T05:21:14;16.60;;;9.40;;
33794;SDS011;51430;52.242;21.118;2022-08-19T05:24:04;14.60;;;9.30;;
33794;SDS011;51430;52.242;21.118;2022-08-19T05:26:37;10.60;;;9.30;;
33794;SDS011;51430;52.242;21.118;2022-08-19T05:29:06;11.80;;;9.80;;
33794;SDS011;51430;52.242;21.118;2022-08-19T05:31:37;14.30;;;9.40;;
33794;SDS011;51430;52.242;21.118;2022-08-19T05:34:08;13.30;;;9.70;;
33794;SDS011;51430;52.242;21.118;2022-08-19T05:36:47;11.50;;;9.00;;
33794;SDS011;51430;52.242;21.118;2022-08-19T05:39:19;12.20;;;8.70;;
33794;SDS011;51430;52.242;21.118;2022-08-19T05:41:49;10.20;;;9.10;;
33794;SDS011;51430;52.242;21.118;2022-08-19T05:44:27;11.10;;;8.60;;
33794;SDS011;51430;52.242;21.118;2022-08-19T05:46:59;10.40;;;9.00;;
33794;SDS011;51430;52.242;21.118;2022-08-19T05:49:30;11.30;;;8.80;;
33794;SDS011;51430;52.242;21.118;2022-08-19T05:52:08;18.60;;;8.30;;
33794;SDS011;51430;52.242;21.118;2022-08-19T05:54:40;14.00;;;8.50;;
33794;SDS011;51430;52.242;21.118;2022-08-19T05:57:09;12.30;;;8.20;;
33794;SDS011;51430;52.242;21.118;2022-08-19T05:59:39;10.50;;;8.20;;
33794;SDS011;51430;52.242;21.118;2022-08-19T06:02:07;11.80;;;8.30;;
33794;SDS011;51430;52.242;21.118;2022-08-19T06:04:35;11.10;;;7.70;;
33794;SDS011;51430;52.242;21.118;2022-08-19T06:07:03;10.60;;;7.70;;
33794;SDS011;51430;52.242;21.118;2022-08-19T06:09:39;11.30;;;7.70;;
33794;SDS011;51430;52.242;21.118;2022-08-19T06:12:29;15.80;;;7.90;;
33794;SDS011;51430;52.242;21.118;2022-08-19T06:15:03;12.90;;;7.00;;
33794;SDS011;51430;52.242;21.118;2022-08-19T06:17:35;10.20;;;7.70;;
33794;SDS011;51430;52.242;21.118;2022-08-19T06:20:05;10.60;;;7.70;;
33794;SDS011;51430;52.242;21.118;2022-08-19T06:22:39;14.50;;;7.10;;
33794;SDS011;51430;52.242;21.118;2022-08-19T06:25:09;9.10;;;7.20;;
33794;SDS011;51430;52.242;21.118;2022-08-19T06:27:38;9.20;;;7.10;;
33794;SDS011;51430;52.242;21.118;2022-08-19T06:30:26;9.40;;;7.50;;
33794;SDS011;51430;52.242;21.118;2022-08-19T06:32:54;11.40;;;7.60;;
33794;SDS011;51430;52.242;21.118;2022-08-19T06:35:23;10.40;;;7.60;;
33794;SDS011;51430;52.242;21.118;2022-08-19T06:37:53;10.10;;;7.70;;
33794;SDS011;51430;52.242;21.118;2022-08-19T06:40:21;8.90;;;7.70;;
33794;SDS011;51430;52.242;21.118;2022-08-19T06:42:50;9.40;;;6.90;;
33794;SDS011;51430;52.242;21.118;2022-08-19T06:45:22;8.40;;;7.30;;
33794;SDS011;51430;52.242;21.118;2022-08-19T06:48:02;11.50;;;7.40;;
33794;SDS011;51430;52.242;21.118;2022-08-19T06:50:30;10.60;;;7.40;;
33794;SDS011;51430;52.242;21.118;2022-08-19T06:52:58;9.90;;;7.60;;
33794;SDS011;51430;52.242;21.118;2022-08-19T06:55:30;11.60;;;7.80;;
33794;SDS011;51430;52.242;21.118;2022-08-19T06:58:03;16.00;;;7.80;;
33794;SDS011;51430;52.242;21.118;2022-08-19T07:00:32;11.40;;;7.90;;
33794;SDS011;51430;52.242;21.118;2022-08-19T07:03:01;13.40;;;7.80;;
33794;SDS011;51430;52.242;21.118;2022-08-19T07:05:39;10.80;;;7.90;;
33794;SDS011;51430;52.242;21.118;2022-08-19T07:08:12;11.50;;;7.80;;
33794;SDS011;51430;52.242;21.118;2022-08-19T07:10:44;15.70;;;9.10;;
33794;SDS011;51430;52.242;21.118;2022-08-19T07:13:13;13.10;;;8.60;;
33794;SDS011;51430;52.242;21.118;2022-08-19T07:15:41;10.60;;;8.10;;
33794;SDS011;51430;52.242;21.118;2022-08-19T07:18:10;11.40;;;8.10;;
33794;SDS011;51430;52.242;21.118;2022-08-19T07:20:39;13.30;;;9.50;;
33794;SDS011;51430;52.242;21.118;2022-08-19T07:23:09;10.90;;;8.30;;
33794;SDS011;51430;52.242;21.118;2022-08-19T07:25:43;11.20;;;7.90;;
33794;SDS011;51430;52.242;21.118;2022-08-19T07:28:19;10.50;;;8.80;;
33794;SDS011;51430;52.242;21.118;2022-08-19T07:30:51;11.20;;;8.50;;
33794;SDS011;51430;52.242;21.118;2022-08-19T07:33:21;10.80;;;8.70;;
33794;SDS011;51430;52.242;21.118;2022-08-19T07:35:49;12.40;;;8.60;;
33794;SDS011;51430;52.242;21.118;2022-08-19T07:38:17;12.50;;;8.40;;
33794;SDS011;51430;52.242;21.118;2022-08-19T07:40:46;11.10;;;9.00;;
33794;SDS011;51430;52.242;21.118;2022-08-19T07:43:14;11.20;;;9.10;;
33794;SDS011;51430;52.242;21.118;2022-08-19T07:45:44;9.30;;;8.40;;
33794;SDS011;51430;52.242;21.118;2022-08-19T07:48:14;9.30;;;8.40;;
33794;SDS011;51430;52.242;21.118;2022-08-19T07:50:42;11.60;;;8.20;;
33794;SDS011;51430;52.242;21.118;2022-08-19T07:53:11;9.30;;;8.20;;
33794;SDS011;51430;52.242;21.118;2022-08-19T07:55:40;11.80;;;7.90;;
33794;SDS011;51430;52.242;21.118;2022-08-19T07:58:11;11.20;;;8.00;;
33794;SDS011;51430;52.242;21.118;2022-08-19T08:00:42;11.70;;;7.80;;
33794;SDS011;51430;52.242;21.118;2022-08-19T08:03:11;8.20;;;7.00;;
33794;SDS011;51430;52.242;21.118;2022-08-19T08:05:39;9.70;;;7.40;;
33794;SDS011;51430;52.242;21.118;2022-08-19T08:08:26;9.80;;;6.90;;
33794;SDS011;51430;52.242;21.118;2022-08-19T08:11:18;10.20;;;7.50;;
33794;SDS011;51430;52.242;21.118;2022-08-19T08:13:50;14.70;;;7.80;;
33794;SDS011;51430;52.242;21.118;2022-08-19T08:16:28;9.00;;;7.60;;
33794;SDS011;51430;52.242;21.118;2022-08-19T08:18:57;11.50;;;7.20;;
33794;SDS011;51430;52.242;21.118;2022-08-19T08:21:26;10.70;;;7.50;;
33794;SDS011;51430;52.242;21.118;2022-08-19T08:23:54;11.30;;;7.10;;
33794;SDS011;51430;52.242;21.118;2022-08-19T08:26:23;9.20;;;7.00;;
33794;SDS011;51430;52.242;21.118;2022-08-19T08:28:52;8.00;;;7.00;;
33794;SDS011;51430;52.242;21.118;2022-08-19T08:31:21;11.40;;;7.20;;
33794;SDS011;51430;52.242;21.118;2022-08-19T08:33:49;11.50;;;7.30;;
33794;SDS011;51430;52.242;21.118;2022-08-19T08:36:17;14.70;;;7.50;;
33794;SDS011;51430;52.242;21.118;2022-08-19T08:38:45;13.70;;;7.40;;
33794;SDS011;51430;52.242;21.118;2022-08-19T08:41:18;10.70;;;7.40;;
33794;SDS011;51430;52.242;21.118;2022-08-19T08:43:55;7.80;;;7.10;;
33794;SDS011;51430;52.242;21.118;2022-08-19T08:51:41;9.80;;;7.50;;
33794;SDS011;51430;52.242;21.118;2022-08-19T08:54:15;8.30;;;7.30;;
33794;SDS011;51430;52.242;21.118;2022-08-19T08:56:47;9.60;;;7.30;;
33794;SDS011;51430;52.242;21.118;2022-08-19T09:01:54;12.80;;;7.30;;
33794;SDS011;51430;52.242;21.118;2022-08-19T09:04:22;9.20;;;7.30;;
33794;SDS011;51430;52.242;21.118;2022-08-19T09:15:52;13.40;;;7.50;;
33794;SDS011;51430;52.242;21.118;2022-08-19T09:18:49;9.60;;;6.80;;
33794;SDS011;51430;52.242;21.118;2022-08-19T09:21:21;11.10;;;6.90;;
33794;SDS011;51430;52.242;21.118;2022-08-19T09:24:00;14.00;;;7.40;;
33794;SDS011;51430;52.242;21.118;2022-08-19T09:26:30;9.80;;;7.00;;
33794;SDS011;51430;52.242;21.118;2022-08-19T09:29:21;11.70;;;7.20;;
33794;SDS011;51430;52.242;21.118;2022-08-19T09:31:49;12.30;;;7.00;;
33794;SDS011;51430;52.242;21.118;2022-08-19T09:34:17;12.00;;;7.20;;
33794;SDS011;51430;52.242;21.118;2022-08-19T09:36:49;11.70;;;6.80;;
33794;SDS011;51430;52.242;21.118;2022-08-19T09:39:21;10.00;;;6.80;;
33794;SDS011;51430;52.242;21.118;2022-08-19T09:41:50;11.20;;;6.70;;
33794;SDS011;51430;52.242;21.118;2022-08-19T09:44:19;7.60;;;6.00;;
33794;SDS011;51430;52.242;21.118;2022-08-19T09:46:48;13.30;;;6.10;;
33794;SDS011;51430;52.242;21.118;2022-08-19T09:49:18;7.40;;;6.00;;
33794;SDS011;51430;52.242;21.118;2022-08-19T09:51:51;9.50;;;6.50;;
33794;SDS011;51430;52.242;21.118;2022-08-19T09:54:23;8.80;;;6.30;;
33794;SDS011;51430;52.242;21.118;2022-08-19T09:56:53;8.50;;;6.20;;
33794;SDS011;51430;52.242;21.118;2022-08-19T09:59:22;9.50;;;6.10;;
33794;SDS011;51430;52.242;21.118;2022-08-19T10:01:50;8.70;;;6.60;;
33794;SDS011;51430;52.242;21.118;2022-08-19T10:04:19;9.10;;;6.00;;
33794;SDS011;51430;52.242;21.118;2022-08-19T10:06:49;12.40;;;6.20;;
33794;SDS011;51430;52.242;21.118;2022-08-19T10:09:20;9.40;;;6.10;;
33794;SDS011;51430;52.242;21.118;2022-08-19T10:12:02;9.70;;;6.10;;
33794;SDS011;51430;52.242;21.118;2022-08-19T10:14:32;14.70;;;6.60;;
33794;SDS011;51430;52.242;21.118;2022-08-19T10:17:02;8.50;;;6.10;;
33794;SDS011;51430;52.242;21.118;2022-08-19T10:19:46;8.60;;;6.50;;
33794;SDS011;51430;52.242;21.118;2022-08-19T10:22:22;8.10;;;6.00;;
33794;SDS011;51430;52.242;21.118;2022-08-19T10:24:52;8.40;;;6.10;;
33794;SDS011;51430;52.242;21.118;2022-08-19T10:27:21;6.90;;;6.30;;
33794;SDS011;51430;52.242;21.118;2022-08-19T10:29:49;11.80;;;6.30;;
33794;SDS011;51430;52.242;21.118;2022-08-19T10:32:17;10.90;;;6.20;;
33794;SDS011;51430;52.242;21.118;2022-08-19T10:35:01;6.60;;;5.80;;
33794;SDS011;51430;52.242;21.118;2022-08-19T10:37:32;6.60;;;5.40;;
33794;SDS011;51430;52.242;21.118;2022-08-19T10:40:02;12.10;;;5.50;;
33794;SDS011;51430;52.242;21.118;2022-08-19T10:42:31;9.30;;;5.80;;
33794;SDS011;51430;52.242;21.118;2022-08-19T10:44:59;10.10;;;5.50;;
33794;SDS011;51430;52.242;21.118;2022-08-19T10:47:27;7.50;;;5.50;;
33794;SDS011;51430;52.242;21.118;2022-08-19T10:49:58;7.90;;;6.10;;
33794;SDS011;51430;52.242;21.118;2022-08-19T10:52:45;7.20;;;5.70;;
33794;SDS011;51430;52.242;21.118;2022-08-19T10:55:19;6.50;;;5.00;;
33794;SDS011;51430;52.242;21.118;2022-08-19T10:58:13;8.80;;;5.20;;
33794;SDS011;51430;52.242;21.118;2022-08-19T11:00:50;9.80;;;5.20;;
33794;SDS011;51430;52.242;21.118;2022-08-19T11:03:23;12.80;;;5.20;;
33794;SDS011;51430;52.242;21.118;2022-08-19T11:05:59;5.70;;;5.20;;
33794;SDS011;51430;52.242;21.118;2022-08-19T11:08:32;9.00;;;5.50;;
33794;SDS011;51430;52.242;21.118;2022-08-19T11:11:02;7.00;;;5.10;;
33794;SDS011;51430;52.242;21.118;2022-08-19T11:13:37;7.20;;;5.40;;
33794;SDS011;51430;52.242;21.118;2022-08-19T11:16:11;8.10;;;5.30;;
33794;SDS011;51430;52.242;21.118;2022-08-19T11:18:51;9.30;;;5.50;;
33794;SDS011;51430;52.242;21.118;2022-08-19T11:21:23;10.90;;;5.60;;
33794;SDS011;51430;52.242;21.118;2022-08-19T11:23:55;6.90;;;5.60;;
33794;SDS011;51430;52.242;21.118;2022-08-19T11:26:25;12.40;;;5.50;;
33794;SDS011;51430;52.242;21.118;2022-08-19T11:28:54;9.10;;;5.50;;
33794;SDS011;51430;52.242;21.118;2022-08-19T11:31:25;8.50;;;5.60;;
33794;SDS011;51430;52.242;21.118;2022-08-19T11:34:01;11.20;;;5.50;;
33794;SDS011;51430;52.242;21.118;2022-08-19T11:36:31;7.20;;;5.30;;
33794;SDS011;51430;52.242;21.118;2022-08-19T11:39:00;6.10;;;5.20;;
33794;SDS011;51430;52.242;21.118;2022-08-19T11:41:29;6.10;;;4.80;;
33794;SDS011;51430;52.242;21.118;2022-08-19T11:43:57;8.10;;;5.50;;
33794;SDS011;51430;52.242;21.118;2022-08-19T11:46:25;8.30;;;5.30;;
33794;SDS011;51430;52.242;21.118;2022-08-19T11:48:57;11.70;;;5.20;;
33794;SDS011;51430;52.242;21.118;2022-08-19T11:51:28;8.60;;;5.40;;
33794;SDS011;51430;52.242;21.118;2022-08-19T11:53:58;7.30;;;5.50;;
33794;SDS011;51430;52.242;21.118;2022-08-19T11:56:27;8.90;;;4.90;;
33794;SDS011;51430;52.242;21.118;2022-08-19T11:58:57;8.50;;;4.60;;
33794;SDS011;51430;52.242;21.118;2022-08-19T12:01:25;10.10;;;5.40;;
33794;SDS011;51430;52.242;21.118;2022-08-19T12:03:54;7.20;;;4.90;;
33794;SDS011;51430;52.242;21.118;2022-08-19T12:06:26;10.20;;;5.10;;
33794;SDS011;51430;52.242;21.118;2022-08-19T12:08:57;6.50;;;4.70;;
33794;SDS011;51430;52.242;21.118;2022-08-19T12:11:27;9.50;;;4.90;;
33794;SDS011;51430;52.242;21.118;2022-08-19T12:14:00;12.40;;;5.00;;
33794;SDS011;51430;52.242;21.118;2022-08-19T12:16:29;7.60;;;4.70;;
33794;SDS011;51430;52.242;21.118;2022-08-19T12:18:59;8.40;;;4.80;;
33794;SDS011;51430;52.242;21.118;2022-08-19T12:21:33;6.60;;;4.70;;
33794;SDS011;51430;52.242;21.118;2022-08-19T12:24:03;8.40;;;5.40;;
33794;SDS011;51430;52.242;21.118;2022-08-19T12:26:33;9.20;;;5.10;;
33794;SDS011;51430;52.242;21.118;2022-08-19T12:29:19;7.80;;;4.60;;
33794;SDS011;51430;52.242;21.118;2022-08-19T12:31:50;10.70;;;4.70;;
33794;SDS011;51430;52.242;21.118;2022-08-19T12:34:19;10.20;;;5.10;;
33794;SDS011;51430;52.242;21.118;2022-08-19T12:36:47;7.90;;;4.80;;
33794;SDS011;51430;52.242;21.118;2022-08-19T12:39:17;10.00;;;5.10;;
33794;SDS011;51430;52.242;21.118;2022-08-19T12:41:45;9.60;;;5.20;;
33794;SDS011;51430;52.242;21.118;2022-08-19T12:44:21;10.50;;;5.10;;
33794;SDS011;51430;52.242;21.118;2022-08-19T12:46:58;8.40;;;4.80;;
33794;SDS011;51430;52.242;21.118;2022-08-19T12:49:27;10.40;;;5.20;;
33794;SDS011;51430;52.242;21.118;2022-08-19T12:52:16;5.60;;;4.50;;
33794;SDS011;51430;52.242;21.118;2022-08-19T12:54:51;9.90;;;4.70;;
33794;SDS011;51430;52.242;21.118;2022-08-19T12:57:23;12.00;;;4.90;;
33794;SDS011;51430;52.242;21.118;2022-08-19T13:00:00;9.30;;;4.80;;
33794;SDS011;51430;52.242;21.118;2022-08-19T13:02:34;14.20;;;4.80;;
33794;SDS011;51430;52.242;21.118;2022-08-19T13:05:06;9.50;;;4.50;;
33794;SDS011;51430;52.242;21.118;2022-08-19T13:07:37;8.50;;;4.50;;
33794;SDS011;51430;52.242;21.118;2022-08-19T13:10:08;9.00;;;4.30;;
33794;SDS011;51430;52.242;21.118;2022-08-19T13:12:39;9.30;;;4.10;;
33794;SDS011;51430;52.242;21.118;2022-08-19T13:15:08;10.00;;;5.10;;
33794;SDS011;51430;52.242;21.118;2022-08-19T13:17:38;9.90;;;4.50;;
33794;SDS011;51430;52.242;21.118;2022-08-19T13:20:08;11.10;;;4.20;;
33794;SDS011;51430;52.242;21.118;2022-08-19T13:22:37;7.10;;;4.80;;
33794;SDS011;51430;52.242;21.118;2022-08-19T13:25:05;9.10;;;4.30;;
33794;SDS011;51430;52.242;21.118;2022-08-19T13:27:35;9.10;;;4.70;;
33794;SDS011;51430;52.242;21.118;2022-08-19T13:30:04;7.70;;;4.20;;
33794;SDS011;51430;52.242;21.118;2022-08-19T13:32:53;9.10;;;4.40;;
33794;SDS011;51430;52.242;21.118;2022-08-19T13:35:48;7.90;;;4.50;;
33794;SDS011;51430;52.242;21.118;2022-08-19T13:38:24;9.00;;;4.50;;
33794;SDS011;51430;52.242;21.118;2022-08-19T13:40:53;12.60;;;5.00;;
33794;SDS011;51430;52.242;21.118;2022-08-19T13:43:24;10.00;;;4.30;;
33794;SDS011;51430;52.242;21.118;2022-08-19T13:45:54;8.10;;;4.10;;
33794;SDS011;51430;52.242;21.118;2022-08-19T13:48:24;7.60;;;4.70;;
33794;SDS011;51430;52.242;21.118;2022-08-19T13:50:54;9.30;;;4.50;;
33794;SDS011;51430;52.242;21.118;2022-08-19T13:53:23;9.40;;;4.70;;
33794;SDS011;51430;52.242;21.118;2022-08-19T13:55:51;10.40;;;4.90;;
33794;SDS011;51430;52.242;21.118;2022-08-19T13:58:22;9.70;;;4.30;;
33794;SDS011;51430;52.242;21.118;2022-08-19T14:00:50;6.30;;;4.60;;
33794;SDS011;51430;52.242;21.118;2022-08-19T14:03:18;5.70;;;4.50;;
33794;SDS011;51430;52.242;21.118;2022-08-19T14:05:47;11.40;;;4.70;;
33794;SDS011;51430;52.242;21.118;2022-08-19T14:08:15;10.20;;;4.80;;
33794;SDS011;51430;52.242;21.118;2022-08-19T14:10:44;11.30;;;4.70;;
33794;SDS011;51430;52.242;21.118;2022-08-19T14:13:13;10.70;;;4.60;;
33794;SDS011;51430;52.242;21.118;2022-08-19T14:15:45;8.20;;;4.40;;
33794;SDS011;51430;52.242;21.118;2022-08-19T14:18:15;7.30;;;4.10;;
33794;SDS011;51430;52.242;21.118;2022-08-19T14:20:45;8.90;;;4.20;;
33794;SDS011;51430;52.242;21.118;2022-08-19T14:23:13;12.30;;;4.90;;
33794;SDS011;51430;52.242;21.118;2022-08-19T14:25:42;7.00;;;4.40;;
33794;SDS011;51430;52.242;21.118;2022-08-19T14:28:11;8.10;;;4.10;;
33794;SDS011;51430;52.242;21.118;2022-08-19T14:30:39;9.20;;;4.30;;
33794;SDS011;51430;52.242;21.118;2022-08-19T14:33:07;7.90;;;4.10;;
33794;SDS011;51430;52.242;21.118;2022-08-19T14:35:36;8.90;;;4.60;;
33794;SDS011;51430;52.242;21.118;2022-08-19T14:38:05;8.90;;;4.30;;
33794;SDS011;51430;52.242;21.118;2022-08-19T14:40:42;6.90;;;4.70;;
33794;SDS011;51430;52.242;21.118;2022-08-19T14:43:10;12.90;;;4.40;;
33794;SDS011;51430;52.242;21.118;2022-08-19T14:45:38;10.80;;;5.00;;
33794;SDS011;51430;52.242;21.118;2022-08-19T14:48:08;9.00;;;5.00;;
33794;SDS011;51430;52.242;21.118;2022-08-19T14:50:46;8.30;;;3.80;;
33794;SDS011;51430;52.242;21.118;2022-08-19T14:53:15;8.30;;;3.90;;
33794;SDS011;51430;52.242;21.118;2022-08-19T14:55:44;5.50;;;3.90;;
33794;SDS011;51430;52.242;21.118;2022-08-19T14:58:13;6.00;;;4.20;;
33794;SDS011;51430;52.242;21.118;2022-08-19T15:00:57;8.30;;;4.40;;
33794;SDS011;51430;52.242;21.118;2022-08-19T15:03:28;8.40;;;4.20;;
33794;SDS011;51430;52.242;21.118;2022-08-19T15:05:57;8.60;;;4.10;;